createdAt,value
2023-03-04T00:01:57.994Z,1011.93
2023-03-04T00:02:38.481Z,1011.96
2023-03-04T00:03:19.605Z,1011.93
2023-03-04T00:04:00.150Z,1011.96
2023-03-04T00:04:40.624Z,1011.98
2023-03-04T00:05:21.139Z,1011.99
2023-03-04T00:06:01.716Z,1011.96
2023-03-04T00:06:42.245Z,1011.98
2023-03-04T00:07:22.744Z,1012.01
2023-03-04T00:08:04.229Z,1012.03
2023-03-04T00:08:45.760Z,1012.02
2023-03-04T00:09:27.176Z,1011.99
2023-03-04T00:10:07.695Z,1012
2023-03-04T00:10:48.212Z,1011.97
2023-03-04T00:13:01.777Z,1012
2023-03-04T00:13:42.293Z,1012.01
2023-03-04T00:14:22.799Z,1012.09
2023-03-04T00:15:03.348Z,1012.04
2023-03-04T00:17:18.663Z,1012.05
2023-03-04T00:18:00.906Z,1012.03
2023-03-04T00:18:41.404Z,1012.03
2023-03-04T00:19:27.377Z,1012.05
2023-03-04T00:21:42.595Z,1012.03
2023-03-04T00:22:23.118Z,1012.03
2023-03-04T00:23:04.992Z,1012.02
2023-03-04T00:23:45.509Z,1011.99
2023-03-04T00:24:26.073Z,1012.01
2023-03-04T00:25:07.496Z,1012.03
2023-03-04T00:25:48.012Z,1012.04
2023-03-04T00:26:28.540Z,1012.02
2023-03-04T00:27:09.801Z,1012
2023-03-04T00:27:50.352Z,1011.96
2023-03-04T00:28:30.824Z,1012
2023-03-04T00:29:12.277Z,1011.96
2023-03-04T00:29:52.802Z,1011.96
2023-03-04T00:30:33.369Z,1011.95
2023-03-04T00:31:13.849Z,1011.95
2023-03-04T00:31:54.421Z,1011.95
2023-03-04T00:32:35.810Z,1011.95
2023-03-04T00:33:16.295Z,1011.98
2023-03-04T00:33:56.822Z,1011.97
2023-03-04T00:34:37.322Z,1011.94
2023-03-04T00:35:17.842Z,1011.96
2023-03-04T00:35:58.382Z,1011.99
2023-03-04T00:36:38.947Z,1011.98
2023-03-04T00:37:20.102Z,1011.97
2023-03-04T00:38:01.285Z,1011.98
2023-03-04T00:38:41.823Z,1012.02
2023-03-04T00:39:23.850Z,1011.98
2023-03-04T00:40:05.207Z,1012.01
2023-03-04T00:42:18.313Z,1012
2023-03-04T00:43:01.235Z,1012.03
2023-03-04T00:43:41.742Z,1012.05
2023-03-04T00:44:22.268Z,1012.03
2023-03-04T00:45:03.640Z,1012.07
2023-03-04T00:47:03.614Z,1012.09
2023-03-04T00:47:44.107Z,1012.08
2023-03-04T00:48:24.621Z,1012.06
2023-03-04T00:49:05.265Z,1012.07
2023-03-04T00:51:18.252Z,1012.05
2023-03-04T00:51:59.431Z,1012.07
2023-03-04T00:52:39.967Z,1012.04
2023-03-04T00:53:21.001Z,1012.06
2023-03-04T00:54:01.516Z,1012.09
2023-03-04T00:54:42.033Z,1012.05
2023-03-04T00:55:23.527Z,1012.08
2023-03-04T00:56:04.812Z,1012.04
2023-03-04T00:58:32.835Z,1012.09
2023-03-04T00:59:13.342Z,1012.06
2023-03-04T00:59:53.878Z,1012.08
2023-03-04T01:00:35.088Z,1012.1
2023-03-04T01:01:15.633Z,1012.04
2023-03-04T01:01:56.972Z,1012.06
2023-03-04T01:02:37.520Z,1012.08
2023-03-04T01:03:18.837Z,1012.09
2023-03-04T01:03:59.388Z,1012.09
2023-03-04T01:05:57.505Z,1012.07
2023-03-04T01:06:38.930Z,1012.05
2023-03-04T01:07:20.308Z,1012.06
2023-03-04T01:08:02.531Z,1012.02
2023-03-04T01:10:17.715Z,1012.04
2023-03-04T01:10:58.285Z,1012.02
2023-03-04T01:11:38.838Z,1012.05
2023-03-04T01:12:19.357Z,1012.04
2023-03-04T01:12:59.856Z,1012.07
2023-03-04T01:13:40.369Z,1012.04
2023-03-04T01:14:20.869Z,1012.05
2023-03-04T01:15:01.415Z,1012.07
2023-03-04T01:15:41.968Z,1012.06
2023-03-04T01:16:22.524Z,1012.05
2023-03-04T01:18:16.090Z,1012.05
2023-03-04T01:18:56.423Z,1012.05
2023-03-04T01:19:39.022Z,1012.05
2023-03-04T01:20:19.591Z,1012.06
2023-03-04T01:22:34.589Z,1012.08
2023-03-04T01:23:15.122Z,1012.05
2023-03-04T01:23:55.644Z,1012.05
2023-03-04T01:24:36.165Z,1012.03
2023-03-04T01:25:16.719Z,1012.06
2023-03-04T01:25:57.272Z,1012.04
2023-03-04T01:26:37.833Z,1012.02
2023-03-04T01:27:18.366Z,1012.04
2023-03-04T01:27:58.919Z,1012.04
2023-03-04T01:28:39.471Z,1012
2023-03-04T01:29:20.001Z,1012.01
2023-03-04T01:31:18.071Z,1011.98
2023-03-04T01:31:58.594Z,1011.98
2023-03-04T01:32:39.068Z,1011.99
2023-03-04T01:33:19.598Z,1011.97
2023-03-04T01:34:00.126Z,1012.01
2023-03-04T01:34:40.659Z,1011.98
2023-03-04T01:35:21.235Z,1011.98
2023-03-04T01:36:01.821Z,1011.97
2023-03-04T01:36:42.325Z,1012.04
2023-03-04T01:37:22.866Z,1012
2023-03-04T01:38:04.606Z,1012.04
2023-03-04T01:38:43.942Z,1012.01
2023-03-04T01:39:24.502Z,1011.96
2023-03-04T01:40:05.034Z,1011.97
2023-03-04T01:40:45.555Z,1011.97
2023-03-04T01:41:26.080Z,1011.99
2023-03-04T01:42:06.613Z,1011.98
2023-03-04T01:42:47.149Z,1011.97
2023-03-04T01:44:45.071Z,1011.96
2023-03-04T01:45:25.587Z,1011.94
2023-03-04T01:46:06.228Z,1011.93
2023-03-04T01:46:46.638Z,1011.92
2023-03-04T01:47:27.144Z,1011.94
2023-03-04T01:48:07.661Z,1011.95
2023-03-04T01:48:48.240Z,1011.94
2023-03-04T01:49:28.716Z,1011.94
2023-03-04T01:50:09.246Z,1011.92
2023-03-04T01:50:49.760Z,1011.94
2023-03-04T01:51:30.314Z,1011.96
2023-03-04T01:52:10.864Z,1011.91
2023-03-04T01:52:51.404Z,1011.87
2023-03-04T01:53:31.902Z,1011.9
2023-03-04T01:54:12.421Z,1011.86
2023-03-04T01:54:52.966Z,1011.87
2023-03-04T01:55:33.511Z,1011.88
2023-03-04T01:56:14.059Z,1011.84
2023-03-04T01:56:54.591Z,1011.88
2023-03-04T01:58:52.541Z,1011.88
2023-03-04T01:59:33.032Z,1011.82
2023-03-04T02:00:13.592Z,1011.86
2023-03-04T02:00:54.124Z,1011.84
2023-03-04T02:01:34.688Z,1011.86
2023-03-04T02:02:15.167Z,1011.86
2023-03-04T02:02:55.705Z,1011.85
2023-03-04T02:03:36.238Z,1011.86
2023-03-04T02:05:49.789Z,1011.78
2023-03-04T02:06:30.289Z,1011.79
2023-03-04T02:07:10.794Z,1011.82
2023-03-04T02:07:52.194Z,1011.81
2023-03-04T02:10:05.754Z,1011.79
2023-03-04T02:10:46.260Z,1011.79
2023-03-04T02:11:27.726Z,1011.79
2023-03-04T02:12:08.921Z,1011.76
2023-03-04T02:14:23.442Z,1011.77
2023-03-04T02:15:03.945Z,1011.77
2023-03-04T02:15:44.616Z,1011.72
2023-03-04T02:16:25.108Z,1011.75
2023-03-04T02:17:06.608Z,1011.69
2023-03-04T02:17:47.061Z,1011.7
2023-03-04T02:18:27.589Z,1011.72
2023-03-04T02:19:08.076Z,1011.71
2023-03-04T02:19:48.598Z,1011.71
2023-03-04T02:20:29.108Z,1011.7
2023-03-04T02:21:09.624Z,1011.7
2023-03-04T02:21:50.146Z,1011.69
2023-03-04T02:22:30.666Z,1011.68
2023-03-04T02:23:11.170Z,1011.69
2023-03-04T02:23:51.697Z,1011.69
2023-03-04T02:24:32.211Z,1011.68
2023-03-04T02:25:12.755Z,1011.68
2023-03-04T02:25:53.522Z,1011.64
2023-03-04T02:26:35.019Z,1011.66
2023-03-04T02:27:15.473Z,1011.64
2023-03-04T02:27:55.987Z,1011.65
2023-03-04T02:28:36.505Z,1011.65
2023-03-04T02:29:17.056Z,1011.63
2023-03-04T02:29:57.567Z,1011.6
2023-03-04T02:30:38.242Z,1011.63
2023-03-04T02:31:18.838Z,1011.63
2023-03-04T02:32:00.148Z,1011.66
2023-03-04T02:32:40.595Z,1011.63
2023-03-04T02:33:21.111Z,1011.66
2023-03-04T02:34:01.625Z,1011.65
2023-03-04T02:34:42.144Z,1011.65
2023-03-04T02:35:22.693Z,1011.64
2023-03-04T02:36:03.176Z,1011.69
2023-03-04T02:36:43.683Z,1011.67
2023-03-04T02:37:24.209Z,1011.68
2023-03-04T02:38:04.731Z,1011.7
2023-03-04T02:38:45.276Z,1011.68
2023-03-04T02:39:25.796Z,1011.72
2023-03-04T02:40:06.315Z,1011.72
2023-03-04T02:40:46.843Z,1011.72
2023-03-04T02:41:27.387Z,1011.72
2023-03-04T02:42:07.896Z,1011.72
2023-03-04T02:42:49.229Z,1011.73
2023-03-04T02:43:29.780Z,1011.72
2023-03-04T02:44:10.300Z,1011.72
2023-03-04T02:44:50.852Z,1011.72
2023-03-04T02:45:31.424Z,1011.73
2023-03-04T02:46:12.014Z,1011.72
2023-03-04T02:46:52.564Z,1011.71
2023-03-04T02:47:32.989Z,1011.71
2023-03-04T02:48:13.503Z,1011.72
2023-03-04T02:48:54.020Z,1011.67
2023-03-04T02:49:34.536Z,1011.67
2023-03-04T02:50:15.050Z,1011.67
2023-03-04T02:50:55.575Z,1011.69
2023-03-04T02:51:36.857Z,1011.68
2023-03-04T02:52:18.040Z,1011.68
2023-03-04T02:52:58.619Z,1011.69
2023-03-04T02:53:39.129Z,1011.68
2023-03-04T02:54:19.660Z,1011.68
2023-03-04T02:55:00.168Z,1011.71
2023-03-04T02:55:41.647Z,1011.67
2023-03-04T02:56:22.166Z,1011.69
2023-03-04T02:57:02.680Z,1011.68
2023-03-04T02:57:43.196Z,1011.69
2023-03-04T02:58:23.720Z,1011.69
2023-03-04T02:59:04.262Z,1011.67
2023-03-04T02:59:44.816Z,1011.67
2023-03-04T03:00:25.319Z,1011.69
2023-03-04T03:01:05.871Z,1011.66
2023-03-04T03:01:46.411Z,1011.65
2023-03-04T03:02:26.908Z,1011.68
2023-03-04T03:03:08.028Z,1011.7
2023-03-04T03:03:48.513Z,1011.66
2023-03-04T03:04:29.053Z,1011.68
2023-03-04T03:05:09.560Z,1011.68
2023-03-04T03:05:50.085Z,1011.67
2023-03-04T03:06:30.609Z,1011.69
2023-03-04T03:07:11.113Z,1011.68
2023-03-04T03:07:51.637Z,1011.66
2023-03-04T03:08:32.181Z,1011.68
2023-03-04T03:09:13.655Z,1011.66
2023-03-04T03:09:54.169Z,1011.64
2023-03-04T03:10:34.686Z,1011.63
2023-03-04T03:11:15.199Z,1011.63
2023-03-04T03:11:55.721Z,1011.62
2023-03-04T03:12:36.236Z,1011.6
2023-03-04T03:13:16.749Z,1011.63
2023-03-04T03:13:58.222Z,1011.65
2023-03-04T03:14:38.775Z,1011.62
2023-03-04T03:15:19.316Z,1011.63
2023-03-04T03:15:59.892Z,1011.62
2023-03-04T03:16:41.209Z,1011.61
2023-03-04T03:17:21.705Z,1011.61
2023-03-04T03:18:02.244Z,1011.64
2023-03-04T03:18:42.767Z,1011.66
2023-03-04T03:19:23.284Z,1011.64
2023-03-04T03:20:03.803Z,1011.61
2023-03-04T03:22:16.852Z,1011.63
2023-03-04T03:22:57.365Z,1011.62
2023-03-04T03:23:37.923Z,1011.62
2023-03-04T03:24:18.630Z,1011.64
2023-03-04T03:24:59.129Z,1011.62
2023-03-04T03:25:40.542Z,1011.61
2023-03-04T03:26:21.067Z,1011.67
2023-03-04T03:27:01.573Z,1011.63
2023-03-04T03:27:42.087Z,1011.61
2023-03-04T03:28:22.624Z,1011.59
2023-03-04T03:29:03.137Z,1011.62
2023-03-04T03:29:43.806Z,1011.61
2023-03-04T03:30:24.326Z,1011.63
2023-03-04T03:31:04.869Z,1011.59
2023-03-04T03:31:45.458Z,1011.62
2023-03-04T03:32:25.907Z,1011.66
2023-03-04T03:33:06.423Z,1011.63
2023-03-04T03:33:46.937Z,1011.62
2023-03-04T03:34:27.455Z,1011.62
2023-03-04T03:35:07.961Z,1011.64
2023-03-04T03:35:48.497Z,1011.62
2023-03-04T03:36:29.034Z,1011.64
2023-03-04T03:37:09.474Z,1011.65
2023-03-04T03:37:49.998Z,1011.63
2023-03-04T03:40:03.937Z,1011.65
2023-03-04T03:40:44.482Z,1011.7
2023-03-04T03:41:25.007Z,1011.66
2023-03-04T03:42:06.304Z,1011.64
2023-03-04T03:42:46.849Z,1011.65
2023-03-04T03:43:27.424Z,1011.64
2023-03-04T03:44:07.887Z,1011.62
2023-03-04T03:44:48.398Z,1011.67
2023-03-04T03:45:28.966Z,1011.65
2023-03-04T03:46:09.486Z,1011.64
2023-03-04T03:46:49.981Z,1011.67
2023-03-04T03:47:30.470Z,1011.66
2023-03-04T03:48:11.740Z,1011.62
2023-03-04T03:48:52.252Z,1011.62
2023-03-04T03:49:32.755Z,1011.58
2023-03-04T03:50:13.276Z,1011.59
2023-03-04T03:50:53.803Z,1011.61
2023-03-04T03:51:34.317Z,1011.58
2023-03-04T03:52:14.882Z,1011.58
2023-03-04T03:52:55.396Z,1011.56
2023-03-04T03:53:35.915Z,1011.59
2023-03-04T03:54:16.426Z,1011.58
2023-03-04T03:54:56.956Z,1011.53
2023-03-04T03:55:37.494Z,1011.52
2023-03-04T03:56:17.982Z,1011.49
2023-03-04T03:56:58.506Z,1011.51
2023-03-04T03:57:39.042Z,1011.54
2023-03-04T03:58:20.257Z,1011.5
2023-03-04T03:59:00.751Z,1011.52
2023-03-04T03:59:41.253Z,1011.49
2023-03-04T04:00:21.769Z,1011.5
2023-03-04T04:01:02.274Z,1011.49
2023-03-04T04:01:42.814Z,1011.53
2023-03-04T04:02:23.454Z,1011.53
2023-03-04T04:03:03.922Z,1011.5
2023-03-04T04:03:44.371Z,1011.53
2023-03-04T04:04:24.890Z,1011.55
2023-03-04T04:05:05.403Z,1011.52
2023-03-04T04:05:45.986Z,1011.53
2023-03-04T04:06:26.514Z,1011.5
2023-03-04T04:07:07.023Z,1011.57
2023-03-04T04:09:20.110Z,1011.58
2023-03-04T04:10:00.630Z,1011.56
2023-03-04T04:10:41.184Z,1011.59
2023-03-04T04:11:21.670Z,1011.59
2023-03-04T04:12:02.195Z,1011.58
2023-03-04T04:12:42.695Z,1011.6
2023-03-04T04:13:23.222Z,1011.6
2023-03-04T04:14:03.788Z,1011.63
2023-03-04T04:14:44.279Z,1011.61
2023-03-04T04:15:25.728Z,1011.66
2023-03-04T04:16:06.324Z,1011.61
2023-03-04T04:16:46.917Z,1011.63
2023-03-04T04:17:27.344Z,1011.61
2023-03-04T04:18:07.834Z,1011.65
2023-03-04T04:18:48.344Z,1011.65
2023-03-04T04:19:28.876Z,1011.69
2023-03-04T04:20:09.396Z,1011.63
2023-03-04T04:20:49.924Z,1011.66
2023-03-04T04:21:30.435Z,1011.66
2023-03-04T04:24:24.031Z,1011.68
2023-03-04T04:26:50.127Z,1011.69
2023-03-04T04:27:30.656Z,1011.7
2023-03-04T04:28:11.165Z,1011.67
2023-03-04T04:28:51.716Z,1011.67
2023-03-04T04:29:32.238Z,1011.66
2023-03-04T04:30:12.786Z,1011.67
2023-03-04T04:30:53.420Z,1011.67
2023-03-04T04:31:33.828Z,1011.67
2023-03-04T04:32:14.398Z,1011.67
2023-03-04T04:32:54.903Z,1011.68
2023-03-04T04:33:36.242Z,1011.68
2023-03-04T04:34:16.810Z,1011.71
2023-03-04T04:34:57.351Z,1011.64
2023-03-04T04:35:37.911Z,1011.68
2023-03-04T04:36:18.380Z,1011.69
2023-03-04T04:36:58.897Z,1011.64
2023-03-04T04:37:39.434Z,1011.63
2023-03-04T04:38:19.973Z,1011.65
2023-03-04T04:39:00.485Z,1011.69
2023-03-04T04:39:41.015Z,1011.66
2023-03-04T04:40:21.537Z,1011.68
2023-03-04T04:41:02.042Z,1011.65
2023-03-04T04:41:42.558Z,1011.66
2023-03-04T04:42:23.085Z,1011.65
2023-03-04T04:43:03.597Z,1011.69
2023-03-04T04:43:44.112Z,1011.71
2023-03-04T04:44:24.635Z,1011.66
2023-03-04T04:45:06.046Z,1011.67
2023-03-04T04:45:46.557Z,1011.72
2023-03-04T04:46:27.074Z,1011.69
2023-03-04T04:47:07.602Z,1011.66
2023-03-04T04:47:48.119Z,1011.71
2023-03-04T04:48:28.712Z,1011.71
2023-03-04T04:49:09.223Z,1011.67
2023-03-04T04:49:49.742Z,1011.69
2023-03-04T04:50:32.590Z,1011.7
2023-03-04T04:51:10.884Z,1011.67
2023-03-04T04:51:51.399Z,1011.69
2023-03-04T04:52:31.919Z,1011.72
2023-03-04T04:53:12.462Z,1011.7
2023-03-04T04:53:52.973Z,1011.7
2023-03-04T04:54:33.495Z,1011.75
2023-03-04T04:55:14.018Z,1011.71
2023-03-04T04:55:54.537Z,1011.7
2023-03-04T04:58:07.778Z,1011.7
2023-03-04T04:58:48.866Z,1011.69
2023-03-04T04:59:29.398Z,1011.67
2023-03-04T05:00:10.687Z,1011.69
2023-03-04T05:02:23.896Z,1011.71
2023-03-04T05:03:04.485Z,1011.71
2023-03-04T05:03:44.992Z,1011.73
2023-03-04T05:04:25.496Z,1011.72
2023-03-04T05:06:53.821Z,1011.71
2023-03-04T05:07:34.996Z,1011.7
2023-03-04T05:08:16.490Z,1011.68
2023-03-04T05:08:57.969Z,1011.67
2023-03-04T05:11:17.213Z,1011.71
2023-03-04T05:11:57.699Z,1011.66
2023-03-04T05:12:40.027Z,1011.68
2023-03-04T05:13:21.255Z,1011.69
2023-03-04T05:15:21.141Z,1011.7
2023-03-04T05:16:01.756Z,1011.68
2023-03-04T05:16:42.183Z,1011.7
2023-03-04T05:17:22.692Z,1011.69
2023-03-04T05:18:03.208Z,1011.66
2023-03-04T05:18:43.752Z,1011.72
2023-03-04T05:19:24.817Z,1011.67
2023-03-04T05:20:05.310Z,1011.68
2023-03-04T05:20:46.346Z,1011.66
2023-03-04T05:21:26.895Z,1011.7
2023-03-04T05:22:07.429Z,1011.67
2023-03-04T05:22:47.925Z,1011.69
2023-03-04T05:23:28.441Z,1011.69
2023-03-04T05:24:08.971Z,1011.68
2023-03-04T05:24:49.474Z,1011.66
2023-03-04T05:25:29.995Z,1011.66
2023-03-04T05:26:10.539Z,1011.68
2023-03-04T05:26:51.094Z,1011.69
2023-03-04T05:27:33.951Z,1011.65
2023-03-04T05:28:19.010Z,1011.7
2023-03-04T05:30:55.405Z,1011.69
2023-03-04T05:31:35.873Z,1011.68
2023-03-04T05:32:16.477Z,1011.69
2023-03-04T05:32:57.685Z,1011.72
2023-03-04T05:36:38.744Z,1011.7
2023-03-04T05:37:19.277Z,1011.74
2023-03-04T05:37:59.810Z,1011.74
2023-03-04T05:38:40.325Z,1011.72
2023-03-04T05:39:20.837Z,1011.69
2023-03-04T05:40:01.386Z,1011.74
2023-03-04T05:40:41.897Z,1011.77
2023-03-04T05:41:22.394Z,1011.74
2023-03-04T05:42:02.925Z,1011.72
2023-03-04T05:42:44.426Z,1011.72
2023-03-04T05:43:24.973Z,1011.74
2023-03-04T05:44:05.498Z,1011.76
2023-03-04T05:44:46.036Z,1011.76
2023-03-04T05:45:26.601Z,1011.77
2023-03-04T05:46:07.172Z,1011.79
2023-03-04T05:46:47.731Z,1011.8
2023-03-04T05:47:29.098Z,1011.78
2023-03-04T05:48:09.659Z,1011.79
2023-03-04T05:48:50.140Z,1011.8
2023-03-04T05:49:30.684Z,1011.79
2023-03-04T05:50:11.190Z,1011.81
2023-03-04T05:50:51.717Z,1011.84
2023-03-04T05:51:32.226Z,1011.84
2023-03-04T05:52:12.766Z,1011.85
2023-03-04T05:52:54.229Z,1011.86
2023-03-04T05:53:35.722Z,1011.85
2023-03-04T05:54:16.247Z,1011.84
2023-03-04T05:54:56.770Z,1011.83
2023-03-04T05:55:37.267Z,1011.86
2023-03-04T05:56:17.781Z,1011.83
2023-03-04T05:58:15.681Z,1011.89
2023-03-04T05:58:56.204Z,1011.89
2023-03-04T05:59:36.753Z,1011.87
2023-03-04T06:00:17.284Z,1011.88
2023-03-04T06:00:57.784Z,1011.87
2023-03-04T06:01:38.301Z,1011.91
2023-03-04T06:02:18.890Z,1011.89
2023-03-04T06:02:59.352Z,1011.92
2023-03-04T06:03:39.860Z,1011.9
2023-03-04T06:04:20.378Z,1011.95
2023-03-04T06:05:00.894Z,1011.93
2023-03-04T06:05:41.396Z,1011.96
2023-03-04T06:06:21.916Z,1011.91
2023-03-04T06:07:02.437Z,1011.95
2023-03-04T06:07:42.958Z,1011.93
2023-03-04T06:08:23.471Z,1011.94
2023-03-04T06:09:03.984Z,1011.96
2023-03-04T06:09:44.506Z,1011.96
2023-03-04T06:10:25.973Z,1011.97
2023-03-04T06:11:06.498Z,1011.98
2023-03-04T06:11:47.006Z,1012
2023-03-04T06:12:27.518Z,1012.01
2023-03-04T06:13:08.022Z,1012.01
2023-03-04T06:13:49.436Z,1012.06
2023-03-04T06:14:29.996Z,1012.04
2023-03-04T06:15:10.444Z,1012.03
2023-03-04T06:15:50.989Z,1012.02
2023-03-04T06:16:31.533Z,1012.01
2023-03-04T06:17:11.990Z,1012.01
2023-03-04T06:17:52.540Z,1011.98
2023-03-04T06:18:33.067Z,1012.04
2023-03-04T06:19:13.571Z,1012.04
2023-03-04T06:19:54.094Z,1012.04
2023-03-04T06:20:34.626Z,1012.09
2023-03-04T06:21:15.703Z,1012.12
2023-03-04T06:21:56.223Z,1012.09
2023-03-04T06:22:36.783Z,1012.13
2023-03-04T06:23:17.341Z,1012.12
2023-03-04T06:23:57.773Z,1012.12
2023-03-04T06:24:38.269Z,1012.16
2023-03-04T06:25:18.790Z,1012.16
2023-03-04T06:25:59.328Z,1012.15
2023-03-04T06:26:39.846Z,1012.17
2023-03-04T06:27:20.971Z,1012.2
2023-03-04T06:28:02.413Z,1012.21
2023-03-04T06:28:42.926Z,1012.23
2023-03-04T06:29:23.439Z,1012.21
2023-03-04T06:30:03.963Z,1012.24
2023-03-04T06:30:45.297Z,1012.26
2023-03-04T06:31:25.869Z,1012.26
2023-03-04T06:32:06.369Z,1012.23
2023-03-04T06:32:46.847Z,1012.24
2023-03-04T06:33:27.380Z,1012.23
2023-03-04T06:34:07.895Z,1012.23
2023-03-04T06:34:48.392Z,1012.3
2023-03-04T06:35:28.965Z,1012.25
2023-03-04T06:36:09.444Z,1012.27
2023-03-04T06:36:49.982Z,1012.29
2023-03-04T06:37:30.499Z,1012.25
2023-03-04T06:38:11.008Z,1012.26
2023-03-04T06:38:51.554Z,1012.27
2023-03-04T06:39:32.718Z,1012.29
2023-03-04T06:41:30.618Z,1012.31
2023-03-04T06:42:11.137Z,1012.25
2023-03-04T06:42:51.657Z,1012.28
2023-03-04T06:43:32.864Z,1012.3
2023-03-04T06:44:13.397Z,1012.29
2023-03-04T06:44:53.922Z,1012.27
2023-03-04T06:45:34.441Z,1012.27
2023-03-04T06:46:14.984Z,1012.32
2023-03-04T06:46:55.580Z,1012.29
2023-03-04T06:47:35.988Z,1012.3
2023-03-04T06:48:16.489Z,1012.32
2023-03-04T06:48:57.023Z,1012.34
2023-03-04T06:49:37.523Z,1012.37
2023-03-04T06:50:18.052Z,1012.34
2023-03-04T06:50:58.571Z,1012.33
2023-03-04T06:51:39.093Z,1012.36
2023-03-04T06:52:19.606Z,1012.34
2023-03-04T06:53:00.126Z,1012.35
2023-03-04T06:53:40.685Z,1012.37
2023-03-04T06:54:22.191Z,1012.36
2023-03-04T06:55:02.670Z,1012.39
2023-03-04T06:55:43.176Z,1012.38
2023-03-04T06:56:23.698Z,1012.4
2023-03-04T06:57:04.210Z,1012.36
2023-03-04T06:57:45.974Z,1012.37
2023-03-04T06:58:25.244Z,1012.37
2023-03-04T06:59:05.767Z,1012.41
2023-03-04T06:59:46.286Z,1012.36
2023-03-04T07:00:26.807Z,1012.36
2023-03-04T07:01:07.366Z,1012.4
2023-03-04T07:01:47.873Z,1012.42
2023-03-04T07:02:28.346Z,1012.37
2023-03-04T07:03:08.860Z,1012.42
2023-03-04T07:03:49.449Z,1012.42
2023-03-04T07:05:47.280Z,1012.46
2023-03-04T07:06:27.803Z,1012.4
2023-03-04T07:07:08.333Z,1012.44
2023-03-04T07:08:03.962Z,1012.44
2023-03-04T07:08:44.498Z,1012.45
2023-03-04T07:09:26.007Z,1012.46
2023-03-04T07:10:06.506Z,1012.46
2023-03-04T07:10:47.005Z,1012.46
2023-03-04T07:11:27.535Z,1012.44
2023-03-04T07:13:40.299Z,1012.44
2023-03-04T07:14:22.880Z,1012.51
2023-03-04T07:15:01.315Z,1012.51
2023-03-04T07:15:41.840Z,1012.51
2023-03-04T07:16:22.431Z,1012.52
2023-03-04T07:17:02.876Z,1012.51
2023-03-04T07:17:43.403Z,1012.57
2023-03-04T07:18:23.902Z,1012.59
2023-03-04T07:19:04.439Z,1012.61
2023-03-04T07:19:44.954Z,1012.58
2023-03-04T07:20:25.459Z,1012.63
2023-03-04T07:21:07.592Z,1012.61
2023-03-04T07:21:48.126Z,1012.64
2023-03-04T07:22:29.253Z,1012.63
2023-03-04T07:23:09.771Z,1012.63
2023-03-04T07:23:50.297Z,1012.64
2023-03-04T07:24:30.837Z,1012.62
2023-03-04T07:25:11.327Z,1012.65
2023-03-04T07:27:25.883Z,1012.61
2023-03-04T07:28:06.377Z,1012.63
2023-03-04T07:28:46.901Z,1012.66
2023-03-04T07:29:27.429Z,1012.65
2023-03-04T07:30:07.932Z,1012.62
2023-03-04T07:30:48.457Z,1012.65
2023-03-04T07:33:01.514Z,1012.68
2023-03-04T07:33:42.039Z,1012.71
2023-03-04T07:34:22.534Z,1012.68
2023-03-04T07:35:03.065Z,1012.72
2023-03-04T07:35:43.620Z,1012.68
2023-03-04T07:36:24.101Z,1012.71
2023-03-04T07:37:04.621Z,1012.72
2023-03-04T07:37:45.164Z,1012.78
2023-03-04T07:38:25.680Z,1012.73
2023-03-04T07:39:06.209Z,1012.76
2023-03-04T07:39:46.772Z,1012.73
2023-03-04T07:40:28.193Z,1012.73
2023-03-04T07:41:08.701Z,1012.72
2023-03-04T07:41:49.207Z,1012.77
2023-03-04T07:42:29.740Z,1012.77
2023-03-04T07:43:10.302Z,1012.79
2023-03-04T07:43:50.774Z,1012.77
2023-03-04T07:44:31.291Z,1012.78
2023-03-04T07:45:11.812Z,1012.83
2023-03-04T07:47:27.813Z,1012.82
2023-03-04T07:48:09.086Z,1012.82
2023-03-04T07:48:49.609Z,1012.83
2023-03-04T07:49:30.150Z,1012.84
2023-03-04T07:50:10.711Z,1012.84
2023-03-04T07:50:51.211Z,1012.84
2023-03-04T07:51:31.737Z,1012.85
2023-03-04T07:52:12.242Z,1012.86
2023-03-04T07:52:52.769Z,1012.87
2023-03-04T07:53:33.276Z,1012.88
2023-03-04T07:54:13.794Z,1012.93
2023-03-04T07:54:54.337Z,1012.96
2023-03-04T07:55:34.825Z,1012.92
2023-03-04T07:56:15.342Z,1012.91
2023-03-04T07:56:55.866Z,1012.93
2023-03-04T07:57:37.236Z,1012.92
2023-03-04T07:58:17.749Z,1012.92
2023-03-04T07:58:58.271Z,1012.92
2023-03-04T08:01:11.357Z,1012.93
2023-03-04T08:01:52.131Z,1012.97
2023-03-04T08:02:32.653Z,1013
2023-03-04T08:03:13.948Z,1012.96
2023-03-04T08:05:28.448Z,1012.97
2023-03-04T08:06:08.952Z,1013
2023-03-04T08:06:49.491Z,1013.01
2023-03-04T08:07:30.728Z,1013.03
2023-03-04T08:08:11.968Z,1013.02
2023-03-04T08:10:25.293Z,1013.02
2023-03-04T08:11:05.802Z,1013.03
2023-03-04T08:11:46.298Z,1013.01
2023-03-04T08:12:26.821Z,1013.04
2023-03-04T08:14:56.598Z,1013.05
2023-03-04T08:15:37.153Z,1013.07
2023-03-04T08:16:17.704Z,1013.09
2023-03-04T08:16:58.130Z,1013.11
2023-03-04T08:17:38.663Z,1013.08
2023-03-04T08:20:54.641Z,1013.08
2023-03-04T08:21:35.154Z,1013.09
2023-03-04T08:22:15.662Z,1013.05
2023-03-04T08:22:56.182Z,1013.04
2023-03-04T08:25:19.116Z,1013.09
2023-03-04T08:25:59.680Z,1013.08
2023-03-04T08:26:41.047Z,1013.05
2023-03-04T08:27:20.677Z,1013.07
2023-03-04T08:28:01.212Z,1013.05
2023-03-04T08:28:41.749Z,1013.08
2023-03-04T08:29:23.098Z,1013.1
2023-03-04T08:30:05.374Z,1013.06
2023-03-04T08:30:45.969Z,1013.1
2023-03-04T08:31:26.457Z,1013.11
2023-03-04T08:32:07.731Z,1013.05
2023-03-04T08:32:48.132Z,1013.06
2023-03-04T08:33:28.643Z,1013.08
2023-03-04T08:34:09.154Z,1013.08
2023-03-04T08:36:22.368Z,1013.14
2023-03-04T08:37:02.873Z,1013.09
2023-03-04T08:37:44.129Z,1013.07
2023-03-04T08:38:24.631Z,1013.05
2023-03-04T08:40:37.868Z,1013.08
2023-03-04T08:41:18.414Z,1013.09
2023-03-04T08:42:00.450Z,1013.12
2023-03-04T08:42:40.962Z,1013.12
2023-03-04T08:43:21.514Z,1013.08
2023-03-04T08:45:14.076Z,1013.07
2023-03-04T08:45:54.601Z,1013.12
2023-03-04T08:46:35.095Z,1013.13
2023-03-04T08:47:15.642Z,1013.13
2023-03-04T08:47:56.185Z,1013.12
2023-03-04T08:48:36.710Z,1013.14
2023-03-04T08:49:17.223Z,1013.12
2023-03-04T08:49:57.749Z,1013.14
2023-03-04T08:50:38.298Z,1013.13
2023-03-04T08:51:18.837Z,1013.1
2023-03-04T08:51:59.331Z,1013.12
2023-03-04T08:52:39.856Z,1013.1
2023-03-04T08:53:20.394Z,1013.09
2023-03-04T08:54:00.946Z,1013.06
2023-03-04T08:54:41.504Z,1013.11
2023-03-04T08:55:22.033Z,1013.13
2023-03-04T08:56:02.525Z,1013.12
2023-03-04T08:57:55.592Z,1013.12
2023-03-04T08:58:36.126Z,1013.12
2023-03-04T08:59:16.589Z,1013.11
2023-03-04T08:59:57.117Z,1013.11
2023-03-04T09:02:15.744Z,1013.11
2023-03-04T09:02:56.254Z,1013.17
2023-03-04T09:03:36.800Z,1013.16
2023-03-04T09:04:19.658Z,1013.15
2023-03-04T09:08:20.457Z,1013.21
2023-03-04T09:09:00.979Z,1013.21
2023-03-04T09:09:43.942Z,1013.19
2023-03-04T09:10:25.518Z,1013.18
2023-03-04T09:12:53.662Z,1013.13
2023-03-04T09:13:34.212Z,1013.1
2023-03-04T09:14:14.721Z,1013.13
2023-03-04T09:15:08.582Z,1013.1
2023-03-04T09:15:35.791Z,1013.13
2023-03-04T09:16:16.371Z,1013.11
2023-03-04T09:16:56.827Z,1013.1
2023-03-04T09:17:37.339Z,1013.16
2023-03-04T09:18:17.860Z,1013.11
2023-03-04T09:18:58.354Z,1013.1
2023-03-04T09:19:39.447Z,1013.07
2023-03-04T09:20:20.898Z,1013.12
2023-03-04T09:21:01.402Z,1013.13
2023-03-04T09:21:41.921Z,1013.1
2023-03-04T09:22:22.458Z,1013.14
2023-03-04T09:23:02.963Z,1013.14
2023-03-04T09:23:43.488Z,1013.16
2023-03-04T09:24:23.991Z,1013.14
2023-03-04T09:25:04.497Z,1013.12
2023-03-04T09:25:45.016Z,1013.18
2023-03-04T09:26:26.453Z,1013.2
2023-03-04T09:27:06.978Z,1013.19
2023-03-04T09:27:47.492Z,1013.19
2023-03-04T09:28:28.031Z,1013.16
2023-03-04T09:29:08.603Z,1013.18
2023-03-04T09:29:49.133Z,1013.18
2023-03-04T09:30:29.651Z,1013.22
2023-03-04T09:31:10.204Z,1013.22
2023-03-04T09:31:50.683Z,1013.27
2023-03-04T09:32:31.278Z,1013.23
2023-03-04T09:33:11.719Z,1013.25
2023-03-04T09:33:52.232Z,1013.2
2023-03-04T09:34:32.811Z,1013.23
2023-03-04T09:35:13.301Z,1013.22